DLH3EY EDDM-EDDH
Flight info
| Callsign | DLH3EY |
|---|---|
| Flight time | N/A |
| Altitude | 32000 |
| Route | INPUD3E INPUD Y102 UPALA M726 NARUS DCT ABGUS DCT DIRBO/N0403F230 T902 RARUP RARUP6A |
| Aircraft | A320/M-SDE3FGHIRWY/LB1 |
Departure
| Time | 2026-04-30 22:51 |
|---|---|
| Airport | Munich Airport (EDDM) |
Arrival
| Time | N/A |
|---|---|
| Airport | Hamburg Helmut Schmidt Airport (EDDH) |
| Time | Latitude | Longitude | Altitude | Speed | Heading |
|---|---|---|---|---|---|
| 2026-04-30 22:01 | 48.35730 | 11.79258 | 1467 ft | 0 kts | 263° |
| 2026-04-30 22:30 | 48.35743 | 11.79360 | 1459 ft | 4 kts | 248° |
| 2026-04-30 22:31 | 48.35767 | 11.79400 | 1461 ft | 0 kts | 173° |
| 2026-04-30 22:33 | 48.35761 | 11.79401 | 1461 ft | 4 kts | 173° |
| 2026-04-30 22:34 | 48.35588 | 11.79430 | 1464 ft | 8 kts | 173° |
| 2026-04-30 22:35 | 48.35460 | 11.79453 | 1467 ft | 14 kts | 173° |
| 2026-04-30 22:36 | 48.35128 | 11.79509 | 1459 ft | 14 kts | 173° |
| 2026-04-30 22:36 | 48.35037 | 11.79526 | 1467 ft | 12 kts | 172° |
| 2026-04-30 22:37 | 48.34840 | 11.79560 | 1464 ft | 8 kts | 179° |
| 2026-04-30 22:37 | 48.34782 | 11.79465 | 1460 ft | 19 kts | 259° |
| 2026-04-30 22:37 | 48.34751 | 11.79068 | 1462 ft | 19 kts | 263° |
| 2026-04-30 22:38 | 48.34722 | 11.78667 | 1458 ft | 19 kts | 264° |
| 2026-04-30 22:38 | 48.34692 | 11.78284 | 1465 ft | 18 kts | 264° |
| 2026-04-30 22:39 | 48.34679 | 11.78102 | 1462 ft | 17 kts | 263° |
| 2026-04-30 22:39 | 48.34641 | 11.77616 | 1466 ft | 13 kts | 263° |
| 2026-04-30 22:40 | 48.34599 | 11.77062 | 1466 ft | 23 kts | 263° |
| 2026-04-30 22:41 | 48.34541 | 11.76305 | 1466 ft | 26 kts | 263° |
| 2026-04-30 22:41 | 48.34499 | 11.75739 | 1466 ft | 28 kts | 264° |
| 2026-04-30 22:42 | 48.34291 | 11.74909 | 1459 ft | 11 kts | 173° |
| 2026-04-30 22:43 | 48.34255 | 11.74917 | 1457 ft | 9 kts | 171° |
| 2026-04-30 22:43 | 48.34169 | 11.74993 | 1467 ft | 0 kts | 128° |
| 2026-04-30 22:49 | 48.34166 | 11.74999 | 1467 ft | 0 kts | 128° |
| 2026-04-30 22:50 | 48.34089 | 11.75383 | 1474 ft | 29 kts | 84° |
| 2026-04-30 22:51 | 48.34243 | 11.77365 | 1468 ft | 151 kts | 83° |
| 2026-04-30 22:51 | 48.34480 | 11.80769 | 2335 ft | 172 kts | 83° |
| 2026-04-30 22:52 | 48.34621 | 11.82615 | 2847 ft | 182 kts | 85° |
| 2026-04-30 22:52 | 48.35271 | 11.86749 | 3586 ft | 235 kts | 56° |
| 2026-04-30 22:53 | 48.38512 | 11.88248 | 5074 ft | 275 kts | 353° |
| 2026-04-30 22:53 | 48.41505 | 11.84742 | 6845 ft | 289 kts | 304° |
| 2026-04-30 22:53 | 48.42600 | 11.82202 | 7205 ft | 288 kts | 307° |
| 2026-04-30 22:54 | 48.45204 | 11.77670 | 7379 ft | 286 kts | 317° |
| 2026-04-30 22:55 | 48.49488 | 11.71366 | 8072 ft | 291 kts | 318° |
| 2026-04-30 22:55 | 48.52360 | 11.67003 | 9766 ft | 296 kts | 317° |
| 2026-04-30 22:56 | 48.55270 | 11.62502 | 11300 ft | 302 kts | 317° |
| 2026-04-30 22:56 | 48.60722 | 11.57589 | 12700 ft | 332 kts | 343° |
| 2026-04-30 22:57 | 48.65234 | 11.55025 | 13630 ft | 353 kts | 343° |
| 2026-04-30 22:57 | 48.69851 | 11.52353 | 14957 ft | 358 kts | 343° |
| 2026-04-30 22:58 | 48.74514 | 11.49646 | 16220 ft | 363 kts | 343° |
| 2026-04-30 22:59 | 48.81650 | 11.45492 | 18080 ft | 370 kts | 343° |
| 2026-04-30 22:59 | 48.88124 | 11.41725 | 19522 ft | 378 kts | 343° |